sensor_id;sensor_type;location;lat;lon;timestamp;temperature;humidity
13699;DHT22;6921;53.642;9.956;2023-07-29T00:00:37;17.70;99.90
13699;DHT22;6921;53.642;9.956;2023-07-29T00:02:42;17.80;99.90
13699;DHT22;6921;53.642;9.956;2023-07-29T00:04:46;17.80;99.90
13699;DHT22;6921;53.642;9.956;2023-07-29T00:06:49;17.60;99.90
13699;DHT22;6921;53.642;9.956;2023-07-29T00:08:52;17.70;99.90
13699;DHT22;6921;53.642;9.956;2023-07-29T00:10:55;17.80;99.90
13699;DHT22;6921;53.642;9.956;2023-07-29T00:12:58;17.70;99.90
13699;DHT22;6921;53.642;9.956;2023-07-29T00:15:00;17.50;99.90
13699;DHT22;6921;53.642;9.956;2023-07-29T00:17:04;17.60;99.90
13699;DHT22;6921;53.642;9.956;2023-07-29T00:19:08;17.50;99.90
13699;DHT22;6921;53.642;9.956;2023-07-29T00:21:11;17.50;99.90
13699;DHT22;6921;53.642;9.956;2023-07-29T00:23:17;17.40;99.90
13699;DHT22;6921;53.642;9.956;2023-07-29T00:25:22;17.50;99.90
13699;DHT22;6921;53.642;9.956;2023-07-29T00:27:25;17.40;99.90
13699;DHT22;6921;53.642;9.956;2023-07-29T00:29:28;17.50;99.90
13699;DHT22;6921;53.642;9.956;2023-07-29T00:31:31;17.40;99.90
13699;DHT22;6921;53.642;9.956;2023-07-29T00:33:34;17.50;99.90
13699;DHT22;6921;53.642;9.956;2023-07-29T00:35:39;17.30;99.90
13699;DHT22;6921;53.642;9.956;2023-07-29T00:37:42;17.40;99.90
13699;DHT22;6921;53.642;9.956;2023-07-29T00:39:45;17.50;99.90
13699;DHT22;6921;53.642;9.956;2023-07-29T00:41:48;17.50;99.90
13699;DHT22;6921;53.642;9.956;2023-07-29T00:43:51;17.40;99.90
13699;DHT22;6921;53.642;9.956;2023-07-29T00:45:54;17.50;99.90
13699;DHT22;6921;53.642;9.956;2023-07-29T00:47:59;17.50;99.90
13699;DHT22;6921;53.642;9.956;2023-07-29T00:50:04;17.40;99.90
13699;DHT22;6921;53.642;9.956;2023-07-29T00:52:09;17.40;99.90
13699;DHT22;6921;53.642;9.956;2023-07-29T00:54:14;17.30;99.90
13699;DHT22;6921;53.642;9.956;2023-07-29T00:56:17;17.20;99.90
13699;DHT22;6921;53.642;9.956;2023-07-29T00:58:20;17.30;99.90
13699;DHT22;6921;53.642;9.956;2023-07-29T01:00:24;17.30;99.90
13699;DHT22;6921;53.642;9.956;2023-07-29T01:02:27;17.20;99.90
13699;DHT22;6921;53.642;9.956;2023-07-29T01:04:35;17.20;99.90
13699;DHT22;6921;53.642;9.956;2023-07-29T01:06:45;17.20;99.90
13699;DHT22;6921;53.642;9.956;2023-07-29T01:08:59;17.20;99.90
13699;DHT22;6921;53.642;9.956;2023-07-29T01:11:13;17.00;99.90
13699;DHT22;6921;53.642;9.956;2023-07-29T01:13:25;17.20;99.90
13699;DHT22;6921;53.642;9.956;2023-07-29T01:15:36;17.20;99.90
13699;DHT22;6921;53.642;9.956;2023-07-29T01:17:44;17.20;99.90
13699;DHT22;6921;53.642;9.956;2023-07-29T01:20:00;17.30;99.90
13699;DHT22;6921;53.642;9.956;2023-07-29T01:22:04;17.30;99.90
13699;DHT22;6921;53.642;9.956;2023-07-29T01:24:11;17.30;99.90
13699;DHT22;6921;53.642;9.956;2023-07-29T01:26:14;17.30;99.90
13699;DHT22;6921;53.642;9.956;2023-07-29T01:28:17;17.10;99.90
13699;DHT22;6921;53.642;9.956;2023-07-29T01:30:22;17.30;99.90
13699;DHT22;6921;53.642;9.956;2023-07-29T01:32:30;17.20;99.90
13699;DHT22;6921;53.642;9.956;2023-07-29T01:34:39;17.30;99.90
13699;DHT22;6921;53.642;9.956;2023-07-29T01:36:45;17.30;99.90
13699;DHT22;6921;53.642;9.956;2023-07-29T01:38:51;17.30;99.90
13699;DHT22;6921;53.642;9.956;2023-07-29T01:40:56;17.30;99.90
13699;DHT22;6921;53.642;9.956;2023-07-29T01:43:01;17.40;99.90
13699;DHT22;6921;53.642;9.956;2023-07-29T01:45:06;17.40;99.90
13699;DHT22;6921;53.642;9.956;2023-07-29T01:47:10;17.30;99.90
13699;DHT22;6921;53.642;9.956;2023-07-29T01:49:14;17.40;99.90
13699;DHT22;6921;53.642;9.956;2023-07-29T01:51:18;17.30;99.90
13699;DHT22;6921;53.642;9.956;2023-07-29T01:53:22;17.50;99.90
13699;DHT22;6921;53.642;9.956;2023-07-29T01:55:25;16.90;99.90
13699;DHT22;6921;53.642;9.956;2023-07-29T01:57:29;17.10;99.90
13699;DHT22;6921;53.642;9.956;2023-07-29T01:59:32;17.00;99.90
13699;DHT22;6921;53.642;9.956;2023-07-29T02:01:36;17.70;99.90
13699;DHT22;6921;53.642;9.956;2023-07-29T02:03:39;17.40;99.90
13699;DHT22;6921;53.642;9.956;2023-07-29T02:05:42;17.50;99.90
13699;DHT22;6921;53.642;9.956;2023-07-29T02:07:46;17.50;99.90
13699;DHT22;6921;53.642;9.956;2023-07-29T02:09:50;17.40;99.90
13699;DHT22;6921;53.642;9.956;2023-07-29T02:11:53;17.40;99.90
13699;DHT22;6921;53.642;9.956;2023-07-29T02:13:57;17.50;99.90
13699;DHT22;6921;53.642;9.956;2023-07-29T02:18:04;17.50;99.90
13699;DHT22;6921;53.642;9.956;2023-07-29T02:20:09;17.50;99.90
13699;DHT22;6921;53.642;9.956;2023-07-29T02:22:14;17.50;99.90
13699;DHT22;6921;53.642;9.956;2023-07-29T02:24:17;17.50;99.90
13699;DHT22;6921;53.642;9.956;2023-07-29T02:28:24;17.50;99.90
13699;DHT22;6921;53.642;9.956;2023-07-29T02:30:29;17.50;99.90
13699;DHT22;6921;53.642;9.956;2023-07-29T02:32:32;17.50;99.90
13699;DHT22;6921;53.642;9.956;2023-07-29T02:34:35;17.50;99.90
13699;DHT22;6921;53.642;9.956;2023-07-29T02:36:38;17.50;99.90
13699;DHT22;6921;53.642;9.956;2023-07-29T02:38:42;17.50;99.90
13699;DHT22;6921;53.642;9.956;2023-07-29T02:40:46;17.60;99.90
13699;DHT22;6921;53.642;9.956;2023-07-29T02:42:49;17.40;99.90
13699;DHT22;6921;53.642;9.956;2023-07-29T02:44:52;17.60;99.90
13699;DHT22;6921;53.642;9.956;2023-07-29T02:46:56;17.70;99.90
13699;DHT22;6921;53.642;9.956;2023-07-29T02:49:01;18.30;99.90
13699;DHT22;6921;53.642;9.956;2023-07-29T02:51:03;17.70;99.90
13699;DHT22;6921;53.642;9.956;2023-07-29T02:53:06;17.70;99.90
13699;DHT22;6921;53.642;9.956;2023-07-29T02:55:10;17.90;99.90
13699;DHT22;6921;53.642;9.956;2023-07-29T02:57:13;17.80;99.90
13699;DHT22;6921;53.642;9.956;2023-07-29T02:59:17;17.80;99.90
13699;DHT22;6921;53.642;9.956;2023-07-29T03:03:24;17.70;99.90
13699;DHT22;6921;53.642;9.956;2023-07-29T03:05:28;17.80;99.90
13699;DHT22;6921;53.642;9.956;2023-07-29T03:07:31;17.80;99.90
13699;DHT22;6921;53.642;9.956;2023-07-29T03:09:35;18.00;99.90
13699;DHT22;6921;53.642;9.956;2023-07-29T03:11:39;17.80;99.90
13699;DHT22;6921;53.642;9.956;2023-07-29T03:13:42;17.90;99.90
13699;DHT22;6921;53.642;9.956;2023-07-29T03:15:46;18.00;99.90
13699;DHT22;6921;53.642;9.956;2023-07-29T03:17:49;17.90;99.90
13699;DHT22;6921;53.642;9.956;2023-07-29T03:19:53;18.00;99.90
13699;DHT22;6921;53.642;9.956;2023-07-29T03:21:56;17.90;99.90
13699;DHT22;6921;53.642;9.956;2023-07-29T03:24:00;18.00;99.90
13699;DHT22;6921;53.642;9.956;2023-07-29T03:28:12;18.10;99.90
13699;DHT22;6921;53.642;9.956;2023-07-29T03:30:14;18.10;99.90
13699;DHT22;6921;53.642;9.956;2023-07-29T03:32:17;18.10;99.90
13699;DHT22;6921;53.642;9.956;2023-07-29T03:34:20;18.10;99.90
13699;DHT22;6921;53.642;9.956;2023-07-29T03:36:24;18.10;99.90
13699;DHT22;6921;53.642;9.956;2023-07-29T03:38:28;18.10;99.90
13699;DHT22;6921;53.642;9.956;2023-07-29T03:40:32;18.00;99.90
13699;DHT22;6921;53.642;9.956;2023-07-29T03:42:35;18.10;99.90
13699;DHT22;6921;53.642;9.956;2023-07-29T03:44:39;18.00;99.90
13699;DHT22;6921;53.642;9.956;2023-07-29T03:46:41;17.90;99.90
13699;DHT22;6921;53.642;9.956;2023-07-29T03:50:49;18.00;99.90
13699;DHT22;6921;53.642;9.956;2023-07-29T03:52:54;18.10;99.90
13699;DHT22;6921;53.642;9.956;2023-07-29T03:54:57;18.20;99.90
13699;DHT22;6921;53.642;9.956;2023-07-29T03:57:01;18.00;99.90
13699;DHT22;6921;53.642;9.956;2023-07-29T03:59:05;18.00;99.90
13699;DHT22;6921;53.642;9.956;2023-07-29T04:01:08;18.10;99.90
13699;DHT22;6921;53.642;9.956;2023-07-29T04:03:12;18.00;99.90
13699;DHT22;6921;53.642;9.956;2023-07-29T04:05:15;18.00;99.90
13699;DHT22;6921;53.642;9.956;2023-07-29T04:07:18;18.10;99.90
13699;DHT22;6921;53.642;9.956;2023-07-29T04:09:23;18.40;99.90
13699;DHT22;6921;53.642;9.956;2023-07-29T04:11:26;17.70;99.90
13699;DHT22;6921;53.642;9.956;2023-07-29T04:13:29;18.10;99.90
13699;DHT22;6921;53.642;9.956;2023-07-29T04:15:32;18.10;99.90
13699;DHT22;6921;53.642;9.956;2023-07-29T04:17:35;18.20;99.90
13699;DHT22;6921;53.642;9.956;2023-07-29T04:19:38;18.20;99.90
13699;DHT22;6921;53.642;9.956;2023-07-29T04:21:41;18.20;99.90
13699;DHT22;6921;53.642;9.956;2023-07-29T04:23:45;18.20;99.90
13699;DHT22;6921;53.642;9.956;2023-07-29T04:25:50;18.40;99.90
13699;DHT22;6921;53.642;9.956;2023-07-29T04:27:55;18.20;99.90
13699;DHT22;6921;53.642;9.956;2023-07-29T04:29:59;18.20;99.90
13699;DHT22;6921;53.642;9.956;2023-07-29T04:32:03;18.30;99.90
13699;DHT22;6921;53.642;9.956;2023-07-29T04:34:07;18.30;99.90
13699;DHT22;6921;53.642;9.956;2023-07-29T04:36:09;18.30;99.90
13699;DHT22;6921;53.642;9.956;2023-07-29T04:38:12;18.10;99.90
13699;DHT22;6921;53.642;9.956;2023-07-29T04:40:16;18.20;99.90
13699;DHT22;6921;53.642;9.956;2023-07-29T04:42:21;18.20;99.90
13699;DHT22;6921;53.642;9.956;2023-07-29T04:44:24;18.20;99.90
13699;DHT22;6921;53.642;9.956;2023-07-29T04:46:29;18.10;99.90
13699;DHT22;6921;53.642;9.956;2023-07-29T04:48:31;18.10;99.90
13699;DHT22;6921;53.642;9.956;2023-07-29T04:50:34;18.10;99.90
13699;DHT22;6921;53.642;9.956;2023-07-29T04:52:37;18.20;99.90
13699;DHT22;6921;53.642;9.956;2023-07-29T04:54:41;18.10;99.90
13699;DHT22;6921;53.642;9.956;2023-07-29T04:56:44;18.10;99.90
13699;DHT22;6921;53.642;9.956;2023-07-29T04:58:48;18.20;99.90
13699;DHT22;6921;53.642;9.956;2023-07-29T05:00:52;18.20;99.90
13699;DHT22;6921;53.642;9.956;2023-07-29T05:02:55;18.20;99.90
13699;DHT22;6921;53.642;9.956;2023-07-29T05:04:58;18.20;99.90
13699;DHT22;6921;53.642;9.956;2023-07-29T05:07:01;18.20;99.90
13699;DHT22;6921;53.642;9.956;2023-07-29T05:09:14;18.20;99.90
13699;DHT22;6921;53.642;9.956;2023-07-29T05:11:17;18.20;99.90
13699;DHT22;6921;53.642;9.956;2023-07-29T05:13:21;18.30;99.90
13699;DHT22;6921;53.642;9.956;2023-07-29T05:15:28;18.30;99.90
13699;DHT22;6921;53.642;9.956;2023-07-29T05:17:32;18.20;99.90
13699;DHT22;6921;53.642;9.956;2023-07-29T05:19:35;18.20;99.90
13699;DHT22;6921;53.642;9.956;2023-07-29T05:21:39;18.20;99.90
13699;DHT22;6921;53.642;9.956;2023-07-29T05:23:42;18.20;99.90
13699;DHT22;6921;53.642;9.956;2023-07-29T05:25:46;18.20;99.90
13699;DHT22;6921;53.642;9.956;2023-07-29T05:27:49;18.40;99.90
13699;DHT22;6921;53.642;9.956;2023-07-29T05:29:57;18.40;99.90
13699;DHT22;6921;53.642;9.956;2023-07-29T05:32:03;18.30;99.90
13699;DHT22;6921;53.642;9.956;2023-07-29T05:36:15;18.40;99.90
13699;DHT22;6921;53.642;9.956;2023-07-29T05:38:18;18.60;99.90
13699;DHT22;6921;53.642;9.956;2023-07-29T05:40:21;18.50;99.90
13699;DHT22;6921;53.642;9.956;2023-07-29T05:42:26;18.60;99.90
13699;DHT22;6921;53.642;9.956;2023-07-29T05:44:29;18.50;99.90
13699;DHT22;6921;53.642;9.956;2023-07-29T05:46:34;18.60;99.90
13699;DHT22;6921;53.642;9.956;2023-07-29T05:48:40;18.70;99.90
13699;DHT22;6921;53.642;9.956;2023-07-29T05:50:43;18.80;99.90
13699;DHT22;6921;53.642;9.956;2023-07-29T05:52:46;18.70;99.90
13699;DHT22;6921;53.642;9.956;2023-07-29T05:56:56;18.80;99.90
13699;DHT22;6921;53.642;9.956;2023-07-29T05:58:59;18.80;99.90
13699;DHT22;6921;53.642;9.956;2023-07-29T06:01:03;18.30;99.90
13699;DHT22;6921;53.642;9.956;2023-07-29T06:03:06;18.80;99.90
13699;DHT22;6921;53.642;9.956;2023-07-29T06:05:11;18.80;99.90
13699;DHT22;6921;53.642;9.956;2023-07-29T06:07:15;18.80;99.90
13699;DHT22;6921;53.642;9.956;2023-07-29T06:09:19;18.80;99.90
13699;DHT22;6921;53.642;9.956;2023-07-29T06:11:22;18.70;99.90
13699;DHT22;6921;53.642;9.956;2023-07-29T06:13:25;18.70;99.90
13699;DHT22;6921;53.642;9.956;2023-07-29T06:15:29;18.80;99.90
13699;DHT22;6921;53.642;9.956;2023-07-29T06:17:32;19.10;99.90
13699;DHT22;6921;53.642;9.956;2023-07-29T06:19:36;18.90;99.90
13699;DHT22;6921;53.642;9.956;2023-07-29T06:21:41;19.00;99.90
13699;DHT22;6921;53.642;9.956;2023-07-29T06:23:44;19.00;99.90
13699;DHT22;6921;53.642;9.956;2023-07-29T06:25:50;19.00;99.90
13699;DHT22;6921;53.642;9.956;2023-07-29T06:27:53;19.10;99.90
13699;DHT22;6921;53.642;9.956;2023-07-29T06:29:56;19.10;99.90
13699;DHT22;6921;53.642;9.956;2023-07-29T06:31:59;19.10;99.90
13699;DHT22;6921;53.642;9.956;2023-07-29T06:34:03;18.90;99.90
13699;DHT22;6921;53.642;9.956;2023-07-29T06:36:06;19.00;99.90
13699;DHT22;6921;53.642;9.956;2023-07-29T06:38:11;19.00;99.90
13699;DHT22;6921;53.642;9.956;2023-07-29T06:42:19;19.10;99.90
13699;DHT22;6921;53.642;9.956;2023-07-29T06:44:23;19.20;99.90
13699;DHT22;6921;53.642;9.956;2023-07-29T06:46:26;19.10;99.90
13699;DHT22;6921;53.642;9.956;2023-07-29T06:48:29;19.30;99.90
13699;DHT22;6921;53.642;9.956;2023-07-29T06:50:32;19.30;99.90
13699;DHT22;6921;53.642;9.956;2023-07-29T06:52:35;19.20;99.90
13699;DHT22;6921;53.642;9.956;2023-07-29T06:54:41;18.60;99.90
13699;DHT22;6921;53.642;9.956;2023-07-29T06:56:44;19.20;99.90
13699;DHT22;6921;53.642;9.956;2023-07-29T06:58:47;19.20;99.90
13699;DHT22;6921;53.642;9.956;2023-07-29T07:02:56;19.30;99.90
13699;DHT22;6921;53.642;9.956;2023-07-29T07:04:59;19.30;99.90
13699;DHT22;6921;53.642;9.956;2023-07-29T07:07:03;19.30;99.90
13699;DHT22;6921;53.642;9.956;2023-07-29T07:09:06;19.20;99.90
13699;DHT22;6921;53.642;9.956;2023-07-29T07:11:12;19.70;99.90
13699;DHT22;6921;53.642;9.956;2023-07-29T07:13:15;19.20;99.90
13699;DHT22;6921;53.642;9.956;2023-07-29T07:15:18;19.20;99.90
13699;DHT22;6921;53.642;9.956;2023-07-29T07:17:21;19.20;99.90
13699;DHT22;6921;53.642;9.956;2023-07-29T07:19:24;19.20;99.90
13699;DHT22;6921;53.642;9.956;2023-07-29T07:21:28;19.20;99.90
13699;DHT22;6921;53.642;9.956;2023-07-29T07:23:31;19.30;99.90
13699;DHT22;6921;53.642;9.956;2023-07-29T07:25:34;19.20;99.90
13699;DHT22;6921;53.642;9.956;2023-07-29T07:27:38;19.20;99.90
13699;DHT22;6921;53.642;9.956;2023-07-29T07:29:42;19.30;99.90
13699;DHT22;6921;53.642;9.956;2023-07-29T07:31:50;19.30;99.90
13699;DHT22;6921;53.642;9.956;2023-07-29T07:33:55;19.30;99.90
13699;DHT22;6921;53.642;9.956;2023-07-29T07:35:58;19.40;99.90
13699;DHT22;6921;53.642;9.956;2023-07-29T07:38:01;19.30;99.90
13699;DHT22;6921;53.642;9.956;2023-07-29T07:40:06;19.20;99.90
13699;DHT22;6921;53.642;9.956;2023-07-29T07:42:10;19.30;99.90
13699;DHT22;6921;53.642;9.956;2023-07-29T07:44:14;19.30;99.90
13699;DHT22;6921;53.642;9.956;2023-07-29T07:46:19;19.30;99.90
13699;DHT22;6921;53.642;9.956;2023-07-29T07:48:23;19.30;99.90
13699;DHT22;6921;53.642;9.956;2023-07-29T07:50:29;19.40;99.90
13699;DHT22;6921;53.642;9.956;2023-07-29T07:52:32;19.40;99.90
13699;DHT22;6921;53.642;9.956;2023-07-29T07:54:36;19.30;99.90
13699;DHT22;6921;53.642;9.956;2023-07-29T07:58:43;19.40;99.90
13699;DHT22;6921;53.642;9.956;2023-07-29T08:00:47;19.40;99.90
13699;DHT22;6921;53.642;9.956;2023-07-29T08:02:50;19.60;99.90
13699;DHT22;6921;53.642;9.956;2023-07-29T08:04:54;19.40;99.90
13699;DHT22;6921;53.642;9.956;2023-07-29T08:06:57;19.40;99.90
13699;DHT22;6921;53.642;9.956;2023-07-29T08:11:05;19.30;99.90
13699;DHT22;6921;53.642;9.956;2023-07-29T08:13:08;19.50;99.90
13699;DHT22;6921;53.642;9.956;2023-07-29T08:15:11;19.20;99.90
13699;DHT22;6921;53.642;9.956;2023-07-29T08:17:16;19.20;99.90
13699;DHT22;6921;53.642;9.956;2023-07-29T08:19:19;19.20;99.90
13699;DHT22;6921;53.642;9.956;2023-07-29T08:21:24;18.20;99.90
13699;DHT22;6921;53.642;9.956;2023-07-29T08:23:27;19.20;99.90
13699;DHT22;6921;53.642;9.956;2023-07-29T08:25:30;19.20;99.90
13699;DHT22;6921;53.642;9.956;2023-07-29T08:27:35;19.20;99.90
13699;DHT22;6921;53.642;9.956;2023-07-29T08:29:37;19.20;99.90
13699;DHT22;6921;53.642;9.956;2023-07-29T08:31:40;19.20;99.90
13699;DHT22;6921;53.642;9.956;2023-07-29T08:33:47;19.20;99.90
13699;DHT22;6921;53.642;9.956;2023-07-29T08:35:52;18.70;99.90
13699;DHT22;6921;53.642;9.956;2023-07-29T08:37:56;19.20;99.90
13699;DHT22;6921;53.642;9.956;2023-07-29T08:42:04;19.20;99.90
13699;DHT22;6921;53.642;9.956;2023-07-29T08:44:16;19.30;99.90
13699;DHT22;6921;53.642;9.956;2023-07-29T08:48:31;19.20;99.90
13699;DHT22;6921;53.642;9.956;2023-07-29T08:50:37;19.40;99.90
13699;DHT22;6921;53.642;9.956;2023-07-29T08:52:41;19.40;99.90
13699;DHT22;6921;53.642;9.956;2023-07-29T08:54:45;19.40;99.90
13699;DHT22;6921;53.642;9.956;2023-07-29T08:56:49;19.40;99.90
13699;DHT22;6921;53.642;9.956;2023-07-29T08:58:53;19.40;99.90
13699;DHT22;6921;53.642;9.956;2023-07-29T09:00:56;19.50;99.90
13699;DHT22;6921;53.642;9.956;2023-07-29T09:03:00;19.60;99.90
13699;DHT22;6921;53.642;9.956;2023-07-29T09:05:08;19.90;99.90
13699;DHT22;6921;53.642;9.956;2023-07-29T09:07:12;19.70;99.90
13699;DHT22;6921;53.642;9.956;2023-07-29T09:09:16;19.70;99.90
13699;DHT22;6921;53.642;9.956;2023-07-29T09:11:20;19.70;99.90
13699;DHT22;6921;53.642;9.956;2023-07-29T09:13:24;19.90;99.90
13699;DHT22;6921;53.642;9.956;2023-07-29T09:15:30;19.90;99.90
13699;DHT22;6921;53.642;9.956;2023-07-29T09:17:33;20.00;99.90
13699;DHT22;6921;53.642;9.956;2023-07-29T09:19:36;20.00;99.90
13699;DHT22;6921;53.642;9.956;2023-07-29T09:21:40;19.90;99.90
13699;DHT22;6921;53.642;9.956;2023-07-29T09:23:46;20.00;99.90
13699;DHT22;6921;53.642;9.956;2023-07-29T09:26:04;20.00;99.90
13699;DHT22;6921;53.642;9.956;2023-07-29T09:28:16;20.00;99.90
13699;DHT22;6921;53.642;9.956;2023-07-29T09:30:23;20.10;99.90
13699;DHT22;6921;53.642;9.956;2023-07-29T09:32:39;20.10;99.90
13699;DHT22;6921;53.642;9.956;2023-07-29T09:34:44;20.20;99.90
13699;DHT22;6921;53.642;9.956;2023-07-29T09:36:50;20.20;99.90
13699;DHT22;6921;53.642;9.956;2023-07-29T09:38:56;20.30;99.90
13699;DHT22;6921;53.642;9.956;2023-07-29T09:41:00;20.40;99.90
13699;DHT22;6921;53.642;9.956;2023-07-29T09:43:04;23.40;99.90
13699;DHT22;6921;53.642;9.956;2023-07-29T09:45:09;20.70;99.90
13699;DHT22;6921;53.642;9.956;2023-07-29T09:47:19;20.70;99.90
13699;DHT22;6921;53.642;9.956;2023-07-29T09:49:23;21.00;99.90
13699;DHT22;6921;53.642;9.956;2023-07-29T09:51:27;20.80;99.90
13699;DHT22;6921;53.642;9.956;2023-07-29T09:55:35;20.80;99.90
13699;DHT22;6921;53.642;9.956;2023-07-29T09:57:39;21.00;99.90
13699;DHT22;6921;53.642;9.956;2023-07-29T09:59:42;21.20;99.90
13699;DHT22;6921;53.642;9.956;2023-07-29T10:01:45;21.30;99.90
13699;DHT22;6921;53.642;9.956;2023-07-29T10:03:49;21.30;99.90
13699;DHT22;6921;53.642;9.956;2023-07-29T10:05:53;21.40;99.90
13699;DHT22;6921;53.642;9.956;2023-07-29T10:07:56;21.60;99.90
13699;DHT22;6921;53.642;9.956;2023-07-29T10:10:01;21.70;99.90
13699;DHT22;6921;53.642;9.956;2023-07-29T10:12:07;21.60;99.90
13699;DHT22;6921;53.642;9.956;2023-07-29T10:14:11;21.50;99.90
13699;DHT22;6921;53.642;9.956;2023-07-29T10:16:15;21.50;99.90
13699;DHT22;6921;53.642;9.956;2023-07-29T10:18:18;21.70;99.90
13699;DHT22;6921;53.642;9.956;2023-07-29T10:20:22;22.20;99.90
13699;DHT22;6921;53.642;9.956;2023-07-29T10:22:27;21.90;99.90
13699;DHT22;6921;53.642;9.956;2023-07-29T10:24:32;22.20;99.90
13699;DHT22;6921;53.642;9.956;2023-07-29T10:26:37;22.30;99.90
13699;DHT22;6921;53.642;9.956;2023-07-29T10:28:47;22.40;99.90
13699;DHT22;6921;53.642;9.956;2023-07-29T10:30:51;22.50;99.90
13699;DHT22;6921;53.642;9.956;2023-07-29T10:32:58;22.70;99.90
13699;DHT22;6921;53.642;9.956;2023-07-29T10:35:01;22.70;99.90
13699;DHT22;6921;53.642;9.956;2023-07-29T10:37:05;22.70;99.90
13699;DHT22;6921;53.642;9.956;2023-07-29T10:39:08;22.50;99.90
13699;DHT22;6921;53.642;9.956;2023-07-29T10:41:12;22.30;99.90
13699;DHT22;6921;53.642;9.956;2023-07-29T10:43:20;22.90;99.90
13699;DHT22;6921;53.642;9.956;2023-07-29T10:45:36;22.40;99.90
13699;DHT22;6921;53.642;9.956;2023-07-29T10:47:40;22.70;99.90
13699;DHT22;6921;53.642;9.956;2023-07-29T10:49:43;22.00;99.90
13699;DHT22;6921;53.642;9.956;2023-07-29T10:53:53;21.90;99.90
13699;DHT22;6921;53.642;9.956;2023-07-29T10:55:56;21.70;99.90
13699;DHT22;6921;53.642;9.956;2023-07-29T10:58:08;21.50;99.90
13699;DHT22;6921;53.642;9.956;2023-07-29T11:00:11;21.70;99.90
13699;DHT22;6921;53.642;9.956;2023-07-29T11:02:19;21.80;99.90
13699;DHT22;6921;53.642;9.956;2023-07-29T11:04:24;21.50;99.90
13699;DHT22;6921;53.642;9.956;2023-07-29T11:06:26;21.60;99.90
13699;DHT22;6921;53.642;9.956;2023-07-29T11:08:30;21.90;99.90
13699;DHT22;6921;53.642;9.956;2023-07-29T11:10:42;22.20;99.90
13699;DHT22;6921;53.642;9.956;2023-07-29T11:12:46;22.00;99.90
13699;DHT22;6921;53.642;9.956;2023-07-29T11:14:50;22.00;99.90
13699;DHT22;6921;53.642;9.956;2023-07-29T11:16:52;21.50;99.90
13699;DHT22;6921;53.642;9.956;2023-07-29T11:18:59;22.40;99.90
13699;DHT22;6921;53.642;9.956;2023-07-29T11:21:06;22.20;99.90
13699;DHT22;6921;53.642;9.956;2023-07-29T11:23:10;22.90;99.90
13699;DHT22;6921;53.642;9.956;2023-07-29T11:25:14;22.60;99.90
13699;DHT22;6921;53.642;9.956;2023-07-29T11:27:17;22.50;99.90
13699;DHT22;6921;53.642;9.956;2023-07-29T11:29:21;22.90;99.90
13699;DHT22;6921;53.642;9.956;2023-07-29T11:31:39;23.00;99.90
13699;DHT22;6921;53.642;9.956;2023-07-29T11:33:42;22.90;99.90
13699;DHT22;6921;53.642;9.956;2023-07-29T11:35:46;23.10;99.90
13699;DHT22;6921;53.642;9.956;2023-07-29T11:37:52;23.30;99.90
13699;DHT22;6921;53.642;9.956;2023-07-29T11:39:55;23.80;99.90
13699;DHT22;6921;53.642;9.956;2023-07-29T11:41:58;24.10;99.90
13699;DHT22;6921;53.642;9.956;2023-07-29T11:44:02;24.30;99.90
13699;DHT22;6921;53.642;9.956;2023-07-29T11:46:05;24.40;99.90
13699;DHT22;6921;53.642;9.956;2023-07-29T11:48:09;24.20;99.90
13699;DHT22;6921;53.642;9.956;2023-07-29T11:50:14;23.90;99.90
13699;DHT22;6921;53.642;9.956;2023-07-29T11:52:19;23.80;99.90
13699;DHT22;6921;53.642;9.956;2023-07-29T11:54:24;23.70;99.90
13699;DHT22;6921;53.642;9.956;2023-07-29T11:56:26;23.80;99.90
13699;DHT22;6921;53.642;9.956;2023-07-29T11:58:31;23.40;99.90
13699;DHT22;6921;53.642;9.956;2023-07-29T12:00:34;23.20;99.90
13699;DHT22;6921;53.642;9.956;2023-07-29T12:02:39;23.20;99.90
13699;DHT22;6921;53.642;9.956;2023-07-29T12:04:43;23.50;99.90
13699;DHT22;6921;53.642;9.956;2023-07-29T12:06:50;25.20;99.90
13699;DHT22;6921;53.642;9.956;2023-07-29T12:08:56;23.60;99.90
13699;DHT22;6921;53.642;9.956;2023-07-29T12:10:59;26.30;99.90
13699;DHT22;6921;53.642;9.956;2023-07-29T12:13:04;24.50;90.00
13699;DHT22;6921;53.642;9.956;2023-07-29T12:15:08;24.70;1.00
13699;DHT22;6921;53.642;9.956;2023-07-29T12:17:12;24.90;1.00
13699;DHT22;6921;53.642;9.956;2023-07-29T12:19:16;25.20;1.00
13699;DHT22;6921;53.642;9.956;2023-07-29T12:21:20;25.20;1.00
13699;DHT22;6921;53.642;9.956;2023-07-29T12:23:24;25.60;99.90
13699;DHT22;6921;53.642;9.956;2023-07-29T12:25:29;25.70;99.90
13699;DHT22;6921;53.642;9.956;2023-07-29T12:27:33;26.00;99.90
13699;DHT22;6921;53.642;9.956;2023-07-29T12:29:40;25.90;99.90
13699;DHT22;6921;53.642;9.956;2023-07-29T12:31:43;25.60;1.00
13699;DHT22;6921;53.642;9.956;2023-07-29T12:33:47;25.90;1.00
13699;DHT22;6921;53.642;9.956;2023-07-29T12:35:50;26.30;99.90
13699;DHT22;6921;53.642;9.956;2023-07-29T12:38:00;26.70;99.90
13699;DHT22;6921;53.642;9.956;2023-07-29T12:40:04;27.20;1.00
13699;DHT22;6921;53.642;9.956;2023-07-29T12:42:10;27.20;99.90
13699;DHT22;6921;53.642;9.956;2023-07-29T12:44:13;27.10;99.90
13699;DHT22;6921;53.642;9.956;2023-07-29T12:46:17;27.20;1.00
13699;DHT22;6921;53.642;9.956;2023-07-29T12:48:20;27.40;1.00
13699;DHT22;6921;53.642;9.956;2023-07-29T12:50:23;27.50;99.90
13699;DHT22;6921;53.642;9.956;2023-07-29T12:56:36;27.40;99.90
13699;DHT22;6921;53.642;9.956;2023-07-29T12:58:41;26.30;1.00
13699;DHT22;6921;53.642;9.956;2023-07-29T13:00:44;26.20;99.90
13699;DHT22;6921;53.642;9.956;2023-07-29T13:02:51;25.50;1.00
13699;DHT22;6921;53.642;9.956;2023-07-29T13:06:59;24.80;1.00
13699;DHT22;6921;53.642;9.956;2023-07-29T13:09:03;24.20;1.00
13699;DHT22;6921;53.642;9.956;2023-07-29T13:11:19;21.80;1.00
13699;DHT22;6921;53.642;9.956;2023-07-29T13:13:23;23.60;1.00
13699;DHT22;6921;53.642;9.956;2023-07-29T13:15:28;23.80;30.00
13699;DHT22;6921;53.642;9.956;2023-07-29T13:17:33;23.70;1.00
13699;DHT22;6921;53.642;9.956;2023-07-29T13:19:37;23.60;18.90
13699;DHT22;6921;53.642;9.956;2023-07-29T13:25:47;24.30;1.00
13699;DHT22;6921;53.642;9.956;2023-07-29T13:27:51;24.90;1.00
13699;DHT22;6921;53.642;9.956;2023-07-29T13:29:54;25.00;1.00
13699;DHT22;6921;53.642;9.956;2023-07-29T13:31:57;24.70;99.90
13699;DHT22;6921;53.642;9.956;2023-07-29T13:34:02;24.50;1.00
13699;DHT22;6921;53.642;9.956;2023-07-29T13:36:06;24.30;1.00
13699;DHT22;6921;53.642;9.956;2023-07-29T13:42:17;24.30;1.00
13699;DHT22;6921;53.642;9.956;2023-07-29T13:46:25;24.40;1.00
13699;DHT22;6921;53.642;9.956;2023-07-29T13:48:30;24.30;1.00
13699;DHT22;6921;53.642;9.956;2023-07-29T13:50:36;24.20;27.60
13699;DHT22;6921;53.642;9.956;2023-07-29T13:52:39;23.70;1.00
13699;DHT22;6921;53.642;9.956;2023-07-29T13:54:44;24.10;1.00
13699;DHT22;6921;53.642;9.956;2023-07-29T13:56:47;24.10;1.00
13699;DHT22;6921;53.642;9.956;2023-07-29T13:58:50;24.00;99.90
13699;DHT22;6921;53.642;9.956;2023-07-29T14:00:54;23.90;99.90
13699;DHT22;6921;53.642;9.956;2023-07-29T14:03:00;24.00;70.60
13699;DHT22;6921;53.642;9.956;2023-07-29T14:05:06;24.30;54.00
13699;DHT22;6921;53.642;9.956;2023-07-29T14:07:09;24.80;17.80